createdAt,value
2022-08-24T00:00:15.817Z,24.03
2022-08-24T00:02:44.807Z,24.04
2022-08-24T00:05:14.985Z,24.04
2022-08-24T00:07:46.913Z,24.04
2022-08-24T00:10:16.248Z,24.00
2022-08-24T00:12:46.734Z,23.97
2022-08-24T00:15:16.682Z,23.93
2022-08-24T00:17:46.790Z,23.90
2022-08-24T00:20:16.717Z,23.87
2022-08-24T00:22:46.063Z,23.84
2022-08-24T00:25:17.498Z,23.80
2022-08-24T00:27:47.465Z,23.74
2022-08-24T00:30:18.669Z,23.68
2022-08-24T00:32:48.239Z,23.65
2022-08-24T00:35:18.358Z,23.60
2022-08-24T00:37:48.777Z,23.56
2022-08-24T00:40:25.912Z,23.52
2022-08-24T00:42:56.235Z,23.49
2022-08-24T00:45:26.067Z,23.44
2022-08-24T00:48:03.836Z,23.42
2022-08-24T00:50:48.168Z,23.38
2022-08-24T00:53:35.353Z,23.36
2022-08-24T00:56:10.842Z,23.34
2022-08-24T00:59:10.893Z,23.32
2022-08-24T01:01:41.603Z,23.29
2022-08-24T01:04:15.525Z,23.25
2022-08-24T01:06:45.880Z,23.19
2022-08-24T01:09:15.731Z,23.18
2022-08-24T01:11:46.826Z,23.13
2022-08-24T01:14:17.829Z,23.09
2022-08-24T01:17:05.715Z,23.04
2022-08-24T01:19:40.309Z,23.00
2022-08-24T01:22:21.121Z,22.96
2022-08-24T01:24:50.743Z,22.91
2022-08-24T01:27:23.910Z,22.88
2022-08-24T01:29:53.127Z,22.86
2022-08-24T01:32:24.432Z,22.86
2022-08-24T01:34:55.819Z,22.87
2022-08-24T01:37:26.043Z,22.86
2022-08-24T01:39:56.928Z,22.84
2022-08-24T01:42:29.863Z,22.80
2022-08-24T01:45:01.279Z,22.77
2022-08-24T01:47:31.231Z,22.74
2022-08-24T01:50:02.059Z,22.70
2022-08-24T01:52:48.756Z,22.66
2022-08-24T01:55:10.259Z,22.62
2022-08-24T01:57:41.266Z,22.59
2022-08-24T02:00:14.671Z,22.56
2022-08-24T02:02:43.907Z,22.52
2022-08-24T02:05:14.005Z,22.45
2022-08-24T02:07:46.358Z,22.40
2022-08-24T02:10:16.560Z,22.36
2022-08-24T02:12:49.925Z,22.34
2022-08-24T02:15:20.300Z,22.33
2022-08-24T02:17:50.904Z,22.30
2022-08-24T02:20:21.699Z,22.26
2022-08-24T02:22:53.049Z,22.23
2022-08-24T02:25:24.066Z,22.19
2022-08-24T02:27:54.409Z,22.16
2022-08-24T02:30:24.746Z,22.10
2022-08-24T02:32:54.619Z,22.05
2022-08-24T02:35:25.849Z,22.03
2022-08-24T02:37:55.617Z,22.00
2022-08-24T02:40:25.836Z,21.99
2022-08-24T02:42:55.500Z,21.99
2022-08-24T02:45:25.418Z,22.01
2022-08-24T02:47:55.690Z,22.01
2022-08-24T02:50:27.414Z,22.02
2022-08-24T02:52:58.260Z,22.02
2022-08-24T02:55:28.325Z,22.00
2022-08-24T02:57:58.143Z,21.99
2022-08-24T03:00:27.589Z,22.00
2022-08-24T03:02:58.534Z,22.01
2022-08-24T03:05:28.615Z,21.98
2022-08-24T03:07:57.608Z,21.94
2022-08-24T03:10:28.132Z,21.89
2022-08-24T03:12:59.525Z,21.87
2022-08-24T03:15:29.759Z,21.86
2022-08-24T03:17:59.978Z,21.82
2022-08-24T03:20:30.406Z,21.81
2022-08-24T03:22:59.490Z,21.79
2022-08-24T03:25:30.447Z,21.76
2022-08-24T03:28:00.194Z,21.76
2022-08-24T03:30:31.705Z,21.75
2022-08-24T03:33:05.191Z,21.77
2022-08-24T03:35:34.698Z,21.80
2022-08-24T03:38:04.058Z,21.82
2022-08-24T03:40:35.123Z,21.82
2022-08-24T03:43:05.100Z,21.80
2022-08-24T03:45:35.827Z,21.77
2022-08-24T03:48:06.533Z,21.76
2022-08-24T03:50:37.539Z,21.77
2022-08-24T04:00:37.589Z,21.79
2022-08-24T04:03:07.935Z,21.80
2022-08-24T04:05:38.902Z,21.80
2022-08-24T04:08:09.821Z,21.81
2022-08-24T04:10:41.114Z,21.82
2022-08-24T04:13:10.349Z,21.82
2022-08-24T04:15:43.295Z,21.81
2022-08-24T04:18:13.564Z,21.83
2022-08-24T04:20:45.057Z,21.86
2022-08-24T04:23:17.181Z,21.88
2022-08-24T04:25:48.485Z,21.89
2022-08-24T04:28:19.162Z,21.90
2022-08-24T04:30:52.833Z,21.90
2022-08-24T04:33:27.499Z,21.91
2022-08-24T04:35:57.380Z,21.88
2022-08-24T04:38:28.438Z,21.90
2022-08-24T04:41:13.542Z,21.91
2022-08-24T04:43:45.087Z,21.93
2022-08-24T04:46:17.890Z,21.93
2022-08-24T04:48:49.070Z,21.95
2022-08-24T04:51:19.772Z,21.98
2022-08-24T04:53:50.401Z,21.99
2022-08-24T04:56:25.402Z,22.02
2022-08-24T04:58:57.159Z,22.04
2022-08-24T05:01:29.705Z,22.06
2022-08-24T05:04:00.369Z,22.08
2022-08-24T05:06:32.058Z,22.12
2022-08-24T05:09:02.523Z,22.13
2022-08-24T05:11:33.094Z,22.14
2022-08-24T05:14:03.734Z,22.18
2022-08-24T05:16:34.746Z,22.20
2022-08-24T05:19:06.882Z,22.22
2022-08-24T05:21:35.959Z,22.26
2022-08-24T05:24:05.737Z,22.30
2022-08-24T05:26:35.707Z,22.33
2022-08-24T05:29:06.258Z,22.37
2022-08-24T05:31:37.536Z,22.40
2022-08-24T05:34:10.826Z,22.46
2022-08-24T05:36:41.879Z,22.50
2022-08-24T05:39:14.066Z,22.54
2022-08-24T05:41:46.592Z,22.56
2022-08-24T05:44:18.728Z,22.57
2022-08-24T05:46:49.960Z,22.58
2022-08-24T05:49:19.273Z,22.60
2022-08-24T05:51:49.727Z,22.64
2022-08-24T05:54:18.860Z,22.68
2022-08-24T05:56:54.699Z,22.72
2022-08-24T05:59:24.900Z,22.76
2022-08-24T06:01:55.035Z,22.79
2022-08-24T06:04:24.349Z,22.84
2022-08-24T06:06:55.425Z,22.88
2022-08-24T06:09:25.463Z,22.91
2022-08-24T06:11:55.578Z,22.96
2022-08-24T06:14:27.150Z,23.01
2022-08-24T06:16:59.876Z,23.02
2022-08-24T06:19:29.729Z,23.05
2022-08-24T06:21:59.907Z,23.09
2022-08-24T06:24:49.410Z,23.14
2022-08-24T06:27:23.132Z,23.17
2022-08-24T06:30:00.842Z,23.23
2022-08-24T06:32:48.975Z,23.30
2022-08-24T06:35:22.708Z,23.37
2022-08-24T06:37:53.030Z,23.42
2022-08-24T06:40:24.629Z,23.44
2022-08-24T06:42:54.304Z,23.47
2022-08-24T06:45:26.733Z,23.51
2022-08-24T06:47:56.793Z,23.57
2022-08-24T06:50:26.890Z,23.66
2022-08-24T06:52:58.170Z,23.71
2022-08-24T06:55:29.499Z,23.78
2022-08-24T06:57:59.018Z,23.84
2022-08-24T07:00:30.633Z,23.92
2022-08-24T07:03:02.129Z,24.15
2022-08-24T07:05:32.369Z,24.50
2022-08-24T07:08:04.711Z,24.98
2022-08-24T07:10:34.517Z,25.49
2022-08-24T07:13:04.328Z,26.01
2022-08-24T07:15:35.562Z,26.46
2022-08-24T07:18:10.070Z,26.93
2022-08-24T07:20:42.489Z,27.74
2022-08-24T07:23:14.688Z,27.74
2022-08-24T07:25:49.615Z,28.07
2022-08-24T07:28:17.490Z,28.46
2022-08-24T07:30:49.147Z,28.85
2022-08-24T07:33:21.117Z,29.10
2022-08-24T07:35:50.479Z,29.38
2022-08-24T07:38:21.903Z,29.57
2022-08-24T07:43:24.268Z,30.00
2022-08-24T07:45:54.537Z,30.20
2022-08-24T07:48:24.818Z,30.45
2022-08-24T07:50:54.892Z,30.50
2022-08-24T07:53:32.386Z,30.53
2022-08-24T07:55:56.890Z,30.64
2022-08-24T07:58:26.686Z,30.77
2022-08-24T08:00:57.373Z,30.86
2022-08-24T08:03:29.149Z,30.89
2022-08-24T08:06:04.301Z,30.97
2022-08-24T08:08:39.774Z,31.08
2022-08-24T08:11:11.287Z,31.20
2022-08-24T08:13:44.281Z,31.64
2022-08-24T08:16:14.467Z,31.87
2022-08-24T08:18:45.505Z,32.18
2022-08-24T08:21:17.395Z,32.28
2022-08-24T08:24:04.617Z,32.39
2022-08-24T08:26:37.670Z,32.52
2022-08-24T08:29:15.309Z,32.59
2022-08-24T08:31:44.272Z,32.64
2022-08-24T08:34:13.814Z,32.68
2022-08-24T08:36:44.688Z,32.79
2022-08-24T08:39:15.929Z,32.81
2022-08-24T08:42:05.705Z,32.85
2022-08-24T08:44:48.238Z,33.00
2022-08-24T08:47:43.782Z,33.05
2022-08-24T08:50:25.204Z,32.98
2022-08-24T08:53:21.404Z,32.96
2022-08-24T08:56:18.675Z,32.95
2022-08-24T08:59:17.978Z,32.91
2022-08-24T09:02:11.557Z,32.87
2022-08-24T09:05:24.766Z,32.79
2022-08-24T09:08:21.623Z,32.81
2022-08-24T09:11:21.936Z,32.80
2022-08-24T09:14:31.570Z,32.73
2022-08-24T09:17:19.146Z,32.69
2022-08-24T09:20:13.281Z,32.55
2022-08-24T09:22:46.599Z,32.45
2022-08-24T09:25:41.631Z,32.41
2022-08-24T09:28:46.737Z,32.33
2022-08-24T09:31:45.861Z,32.25
2022-08-24T09:35:01.694Z,32.15
2022-08-24T09:37:47.750Z,32.08
2022-08-24T09:40:53.407Z,32.02
2022-08-24T09:43:58.319Z,32.00
2022-08-24T09:46:53.893Z,32.03
2022-08-24T09:50:03.127Z,32.03
2022-08-24T09:53:08.884Z,31.95
2022-08-24T09:56:19.281Z,31.91
2022-08-24T09:59:08.677Z,31.88
2022-08-24T10:02:05.317Z,31.85
2022-08-24T10:04:58.517Z,31.83
2022-08-24T10:07:56.122Z,31.81
2022-08-24T10:10:28.840Z,31.80
2022-08-24T10:13:24.495Z,31.77
2022-08-24T10:16:26.589Z,31.77
2022-08-24T10:19:28.527Z,31.78
2022-08-24T10:22:19.607Z,31.79
2022-08-24T10:25:03.943Z,31.80
2022-08-24T10:27:56.874Z,31.79
2022-08-24T10:30:38.601Z,31.75
2022-08-24T10:33:28.396Z,31.71
2022-08-24T10:36:24.519Z,31.71
2022-08-24T10:39:20.053Z,31.67
2022-08-24T10:41:59.952Z,31.61
2022-08-24T10:44:49.971Z,31.58
2022-08-24T10:47:30.865Z,31.53
2022-08-24T10:50:31.440Z,31.50
2022-08-24T10:53:20.968Z,31.53
2022-08-24T10:56:08.010Z,31.64
2022-08-24T10:58:51.870Z,31.66
2022-08-24T11:01:29.018Z,31.61
2022-08-24T11:04:14.365Z,31.60
2022-08-24T11:07:07.158Z,31.58
2022-08-24T11:09:56.038Z,31.57
2022-08-24T11:12:30.238Z,31.54
2022-08-24T11:15:02.585Z,31.57
2022-08-24T11:17:34.898Z,31.58
2022-08-24T11:20:05.915Z,31.61
2022-08-24T11:22:41.108Z,31.63
2022-08-24T11:25:19.078Z,31.60
2022-08-24T11:27:51.808Z,31.58
2022-08-24T11:30:25.224Z,31.62
2022-08-24T11:32:58.231Z,31.61
2022-08-24T11:35:37.186Z,31.63
2022-08-24T11:38:17.100Z,31.64
2022-08-24T11:41:14.277Z,31.68
2022-08-24T11:44:07.310Z,31.71
2022-08-24T11:46:45.798Z,31.74
2022-08-24T11:49:24.314Z,31.68
2022-08-24T11:52:05.428Z,31.60
2022-08-24T11:55:12.193Z,31.56
2022-08-24T11:58:03.645Z,31.54
2022-08-24T12:00:52.224Z,31.52
2022-08-24T12:03:52.499Z,31.48
2022-08-24T12:06:56.691Z,31.41
2022-08-24T12:09:46.817Z,31.38
2022-08-24T12:12:43.054Z,31.40
2022-08-24T12:15:28.653Z,31.46
2022-08-24T12:18:34.705Z,31.57
2022-08-24T12:21:04.971Z,31.55
2022-08-24T12:23:44.818Z,31.51
2022-08-24T12:26:43.646Z,31.48
2022-08-24T12:29:52.908Z,31.47
2022-08-24T12:32:29.222Z,31.50
2022-08-24T12:35:06.646Z,31.53
2022-08-24T12:37:49.595Z,31.57
2022-08-24T12:40:42.086Z,31.57
2022-08-24T12:43:25.754Z,31.61
2022-08-24T12:46:01.260Z,31.66
2022-08-24T12:48:42.684Z,31.69
2022-08-24T12:51:43.997Z,31.71
2022-08-24T12:54:27.526Z,31.71
2022-08-24T12:57:39.643Z,31.74
2022-08-24T13:00:18.138Z,31.74
2022-08-24T13:03:06.759Z,31.73
2022-08-24T13:05:44.400Z,31.71
2022-08-24T13:08:22.762Z,31.72
2022-08-24T13:11:09.153Z,31.77
2022-08-24T13:14:09.066Z,31.76
2022-08-24T13:17:01.994Z,31.74
2022-08-24T13:19:39.860Z,31.75
2022-08-24T13:22:17.998Z,31.80
2022-08-24T13:24:58.621Z,31.87
2022-08-24T13:27:43.289Z,31.94
2022-08-24T13:30:23.862Z,31.95
2022-08-24T13:33:04.283Z,31.94
2022-08-24T13:35:57.748Z,31.89
2022-08-24T13:38:42.672Z,31.84
2022-08-24T13:41:38.592Z,31.77
2022-08-24T13:44:17.105Z,31.72
2022-08-24T13:47:19.556Z,31.65
2022-08-24T13:50:13.201Z,31.60
2022-08-24T13:52:51.899Z,31.50
2022-08-24T13:55:50.524Z,31.47
2022-08-24T13:58:39.210Z,31.44
2022-08-24T14:01:36.721Z,31.39
2022-08-24T14:04:26.220Z,31.40
2022-08-24T14:07:25.042Z,31.41
2022-08-24T14:10:46.200Z,31.37
2022-08-24T14:14:08.384Z,31.34
2022-08-24T14:17:35.946Z,31.29
2022-08-24T14:20:45.925Z,31.23
2022-08-24T14:23:32.905Z,31.17
2022-08-24T14:26:31.374Z,31.14
2022-08-24T14:29:22.189Z,31.12
2022-08-24T14:32:12.600Z,31.08
2022-08-24T14:34:51.270Z,31.05
2022-08-24T14:38:14.850Z,31.04
2022-08-24T14:41:10.068Z,31.02
2022-08-24T14:44:13.705Z,30.99
2022-08-24T14:47:00.481Z,30.96
2022-08-24T14:50:13.160Z,30.93
2022-08-24T14:53:11.522Z,30.91
2022-08-24T14:55:47.012Z,30.87
2022-08-24T14:58:44.894Z,30.85
2022-08-24T15:01:40.030Z,30.82
2022-08-24T15:04:36.323Z,30.79
2022-08-24T15:07:29.284Z,30.76
2022-08-24T15:09:59.530Z,30.75
2022-08-24T15:12:39.408Z,30.73
2022-08-24T15:15:47.690Z,30.73
2022-08-24T15:18:36.205Z,30.73
2022-08-24T15:21:46.541Z,30.78
2022-08-24T15:24:39.142Z,30.80
2022-08-24T15:27:30.851Z,30.83
2022-08-24T15:30:02.989Z,30.81
2022-08-24T15:32:48.761Z,30.76
2022-08-24T15:35:31.772Z,30.73
2022-08-24T15:38:27.468Z,30.69
2022-08-24T15:41:17.181Z,30.65
2022-08-24T15:44:00.389Z,30.59
2022-08-24T15:46:35.334Z,30.54
2022-08-24T15:49:18.556Z,30.48
2022-08-24T15:52:00.845Z,30.43
2022-08-24T15:54:46.208Z,30.38
2022-08-24T15:57:26.686Z,30.33
2022-08-24T16:00:14.228Z,30.27
2022-08-24T16:02:43.803Z,30.19
2022-08-24T16:05:27.285Z,30.09
2022-08-24T16:08:08.033Z,30.09
2022-08-24T16:10:52.858Z,30.04
2022-08-24T16:13:29.549Z,29.98
2022-08-24T16:16:11.584Z,29.94
2022-08-24T16:18:58.419Z,29.89
2022-08-24T16:21:39.873Z,29.86
2022-08-24T16:24:22.519Z,29.81
2022-08-24T16:27:08.660Z,29.71
2022-08-24T16:29:45.061Z,29.71
2022-08-24T16:32:31.705Z,29.66
2022-08-24T16:35:12.439Z,29.62
2022-08-24T16:37:42.775Z,29.58
2022-08-24T16:40:12.846Z,29.53
2022-08-24T16:42:44.367Z,29.47
2022-08-24T16:45:18.424Z,29.44
2022-08-24T16:47:48.765Z,29.39
2022-08-24T16:50:19.553Z,29.33
2022-08-24T16:52:50.147Z,29.28
2022-08-24T16:55:21.521Z,29.23
2022-08-24T16:57:51.374Z,29.18
2022-08-24T17:00:21.807Z,29.14
2022-08-24T17:02:52.154Z,29.02
2022-08-24T17:05:21.993Z,29.02
2022-08-24T17:07:51.939Z,28.97
2022-08-24T17:10:23.667Z,28.90
2022-08-24T17:12:54.106Z,28.85
2022-08-24T17:15:23.890Z,28.77
2022-08-24T17:18:06.353Z,28.71
2022-08-24T17:20:41.763Z,28.64
2022-08-24T17:23:15.972Z,28.58
2022-08-24T17:25:45.480Z,28.52
2022-08-24T17:28:18.003Z,28.46
2022-08-24T17:30:51.387Z,28.41
2022-08-24T17:33:20.405Z,28.38
2022-08-24T17:35:51.514Z,28.34
2022-08-24T17:38:21.977Z,28.29
2022-08-24T17:40:52.030Z,28.25
2022-08-24T17:43:24.822Z,28.21
2022-08-24T17:45:54.622Z,28.15
2022-08-24T17:48:26.181Z,28.09
2022-08-24T17:50:55.149Z,28.05
2022-08-24T17:53:24.907Z,28.01
2022-08-24T17:55:55.248Z,27.94
2022-08-24T17:58:25.658Z,27.88
2022-08-24T18:00:55.077Z,27.85
2022-08-24T18:03:25.490Z,27.81
2022-08-24T18:05:56.181Z,27.76
2022-08-24T18:08:27.045Z,27.72
2022-08-24T18:10:56.876Z,27.68
2022-08-24T18:13:26.794Z,27.61
2022-08-24T18:15:57.171Z,27.58
2022-08-24T18:18:27.434Z,27.57
2022-08-24T18:20:57.633Z,27.52
2022-08-24T18:23:26.649Z,27.47
2022-08-24T18:25:56.944Z,27.43
2022-08-24T18:28:26.351Z,27.40
2022-08-24T18:30:57.069Z,27.35
2022-08-24T18:33:26.994Z,27.32
2022-08-24T18:35:56.918Z,27.29
2022-08-24T18:38:28.164Z,27.25
2022-08-24T18:40:58.816Z,27.23
2022-08-24T18:43:29.202Z,27.19
2022-08-24T18:45:59.516Z,27.14
2022-08-24T18:48:29.811Z,27.09
2022-08-24T18:51:00.280Z,27.04
2022-08-24T18:53:30.231Z,27.02
2022-08-24T18:56:08.197Z,27.01
2022-08-24T18:58:33.158Z,26.98
2022-08-24T19:01:04.369Z,26.94
2022-08-24T19:03:35.718Z,26.92
2022-08-24T19:06:05.406Z,26.88
2022-08-24T19:08:36.728Z,26.83
2022-08-24T19:11:06.903Z,26.77
2022-08-24T19:13:38.831Z,26.71
2022-08-24T19:16:07.982Z,26.68
2022-08-24T19:18:38.617Z,26.65
2022-08-24T19:21:07.845Z,26.63
2022-08-24T19:23:39.083Z,26.59
2022-08-24T19:26:08.549Z,26.58
2022-08-24T19:28:40.073Z,26.58
2022-08-24T19:31:12.419Z,26.54
2022-08-24T19:33:45.760Z,26.51
2022-08-24T19:36:16.429Z,26.49
2022-08-24T19:38:45.848Z,26.47
2022-08-24T19:41:15.711Z,26.45
2022-08-24T19:44:12.676Z,26.44
2022-08-24T19:46:43.714Z,26.38
2022-08-24T19:49:14.244Z,26.32
2022-08-24T19:51:43.717Z,26.26
2022-08-24T19:54:13.564Z,26.22
2022-08-24T19:56:42.734Z,26.20
2022-08-24T19:59:27.308Z,26.18
2022-08-24T20:01:57.650Z,26.15
2022-08-24T20:04:27.423Z,26.13
2022-08-24T20:06:57.282Z,26.11
2022-08-24T20:09:28.539Z,26.08
2022-08-24T20:11:57.374Z,26.07
2022-08-24T20:14:27.171Z,26.04
2022-08-24T20:16:57.036Z,25.99
2022-08-24T20:19:27.685Z,25.96
2022-08-24T20:21:57.792Z,25.91
2022-08-24T20:24:27.328Z,25.88
2022-08-24T20:26:58.020Z,25.85
2022-08-24T20:29:28.364Z,25.81
2022-08-24T20:32:00.051Z,25.79
2022-08-24T20:34:30.177Z,25.78
2022-08-24T20:37:00.108Z,25.75
2022-08-24T20:39:30.126Z,25.73
2022-08-24T20:41:59.903Z,25.67
2022-08-24T20:44:31.111Z,25.62
2022-08-24T20:47:01.137Z,25.55
2022-08-24T20:49:31.302Z,25.52
2022-08-24T20:52:01.362Z,25.45
2022-08-24T20:54:31.650Z,25.38
2022-08-24T20:57:01.858Z,25.28
2022-08-24T20:59:31.975Z,25.23
2022-08-24T21:02:02.777Z,25.18
2022-08-24T21:04:32.549Z,25.11
2022-08-24T21:07:02.017Z,25.00
2022-08-24T21:09:32.189Z,24.91
2022-08-24T21:12:01.798Z,24.86
2022-08-24T21:14:30.818Z,24.81
2022-08-24T21:17:00.726Z,24.76
2022-08-24T21:19:31.039Z,24.70
2022-08-24T21:22:01.011Z,24.64
2022-08-24T21:24:30.980Z,24.59
2022-08-24T21:27:01.789Z,24.54
2022-08-24T21:29:31.278Z,24.51
2022-08-24T21:32:19.189Z,24.42
2022-08-24T21:34:48.092Z,24.34
2022-08-24T21:37:18.129Z,24.29
2022-08-24T21:39:47.119Z,24.25
2022-08-24T21:42:17.285Z,24.21
2022-08-24T21:44:49.261Z,24.20
2022-08-24T21:47:19.170Z,24.16
2022-08-24T21:49:51.004Z,24.10
2022-08-24T21:52:20.065Z,24.04
2022-08-24T21:54:51.709Z,24.00
2022-08-24T21:57:22.619Z,23.95
2022-08-24T21:59:53.849Z,23.91
2022-08-24T22:02:23.065Z,23.86
2022-08-24T22:04:56.269Z,23.79
2022-08-24T22:07:27.554Z,23.69
2022-08-24T22:09:57.706Z,23.62
2022-08-24T22:12:27.994Z,23.58
2022-08-24T22:14:58.480Z,23.52
2022-08-24T22:17:28.150Z,23.45
2022-08-24T22:19:59.524Z,23.34
2022-08-24T22:22:30.164Z,23.30
2022-08-24T22:25:00.032Z,23.29
2022-08-24T22:27:29.458Z,23.27
2022-08-24T22:30:00.352Z,23.23
2022-08-24T22:32:30.413Z,23.16
2022-08-24T22:34:59.987Z,23.06
2022-08-24T22:37:29.693Z,23.01
2022-08-24T22:39:59.542Z,22.94
2022-08-24T22:42:29.534Z,22.89
2022-08-24T22:45:01.111Z,22.86
2022-08-24T22:47:32.003Z,22.87
2022-08-24T22:50:03.978Z,22.84
2022-08-24T22:52:33.937Z,22.80
2022-08-24T22:55:05.472Z,22.72
2022-08-24T22:57:34.943Z,22.67
2022-08-24T23:00:08.570Z,22.65
2022-08-24T23:02:39.171Z,22.62
2022-08-24T23:05:09.587Z,22.54
2022-08-24T23:07:40.313Z,22.49
2022-08-24T23:10:13.179Z,22.42
2022-08-24T23:12:42.227Z,22.39
2022-08-24T23:15:13.832Z,22.37
2022-08-24T23:17:42.935Z,22.31
2022-08-24T23:20:12.534Z,22.27
2022-08-24T23:22:43.192Z,22.27
2022-08-24T23:25:12.924Z,22.26
2022-08-24T23:27:42.364Z,22.24
2022-08-24T23:30:13.927Z,22.24
2022-08-24T23:32:43.434Z,22.22
2022-08-24T23:35:13.574Z,22.19
2022-08-24T23:37:43.490Z,22.18
2022-08-24T23:40:13.700Z,22.14
2022-08-24T23:42:43.807Z,22.13
2022-08-24T23:45:13.756Z,22.11
2022-08-24T23:47:44.162Z,22.08
2022-08-24T23:50:14.408Z,22.07
2022-08-24T23:52:44.386Z,22.04
2022-08-24T23:55:21.228Z,22.02
2022-08-24T23:57:45.589Z,21.99
